sensor_id;sensor_type;location;lat;lon;timestamp;temperature;humidity
27900;DHT22;15243;50.726;7.080;2023-02-28T00:01:32;-0.70;99.90
27900;DHT22;15243;50.726;7.080;2023-02-28T00:03:59;-0.80;99.90
27900;DHT22;15243;50.726;7.080;2023-02-28T00:06:26;-0.80;99.90
27900;DHT22;15243;50.726;7.080;2023-02-28T00:08:54;-0.90;99.90
27900;DHT22;15243;50.726;7.080;2023-02-28T00:11:21;-0.90;99.90
27900;DHT22;15243;50.726;7.080;2023-02-28T00:13:49;-0.90;99.90
27900;DHT22;15243;50.726;7.080;2023-02-28T00:16:18;-0.90;99.90
27900;DHT22;15243;50.726;7.080;2023-02-28T00:18:46;-0.90;99.90
27900;DHT22;15243;50.726;7.080;2023-02-28T00:21:15;-1.00;99.90
27900;DHT22;15243;50.726;7.080;2023-02-28T00:23:42;-1.00;99.90
27900;DHT22;15243;50.726;7.080;2023-02-28T00:26:09;-1.10;99.90
27900;DHT22;15243;50.726;7.080;2023-02-28T00:28:36;-1.00;99.90
27900;DHT22;15243;50.726;7.080;2023-02-28T00:31:03;-1.10;99.90
27900;DHT22;15243;50.726;7.080;2023-02-28T00:33:31;-1.00;99.90
27900;DHT22;15243;50.726;7.080;2023-02-28T00:36:03;-1.00;99.90
27900;DHT22;15243;50.726;7.080;2023-02-28T00:38:30;-1.00;99.90
27900;DHT22;15243;50.726;7.080;2023-02-28T00:40:57;-1.10;99.90
27900;DHT22;15243;50.726;7.080;2023-02-28T00:43:25;-1.10;99.90
27900;DHT22;15243;50.726;7.080;2023-02-28T00:45:51;-1.10;99.90
27900;DHT22;15243;50.726;7.080;2023-02-28T00:48:18;-1.10;99.90
27900;DHT22;15243;50.726;7.080;2023-02-28T00:50:48;-1.00;99.90
27900;DHT22;15243;50.726;7.080;2023-02-28T00:53:16;-1.00;99.90
27900;DHT22;15243;50.726;7.080;2023-02-28T00:55:43;-1.00;99.90
27900;DHT22;15243;50.726;7.080;2023-02-28T00:58:10;-1.00;99.90
27900;DHT22;15243;50.726;7.080;2023-02-28T01:00:36;-1.00;99.90
27900;DHT22;15243;50.726;7.080;2023-02-28T01:03:03;-1.10;99.90
27900;DHT22;15243;50.726;7.080;2023-02-28T01:05:30;-1.10;99.90
27900;DHT22;15243;50.726;7.080;2023-02-28T01:07:57;-1.00;99.90
27900;DHT22;15243;50.726;7.080;2023-02-28T01:10:25;-1.00;99.90
27900;DHT22;15243;50.726;7.080;2023-02-28T01:12:52;-1.00;99.90
27900;DHT22;15243;50.726;7.080;2023-02-28T01:15:18;-1.10;99.90
27900;DHT22;15243;50.726;7.080;2023-02-28T01:17:45;-1.10;99.90
27900;DHT22;15243;50.726;7.080;2023-02-28T01:20:12;-1.20;99.90
27900;DHT22;15243;50.726;7.080;2023-02-28T01:22:39;-1.20;99.90
27900;DHT22;15243;50.726;7.080;2023-02-28T01:25:06;-1.20;99.90
27900;DHT22;15243;50.726;7.080;2023-02-28T01:27:33;-1.30;99.90
27900;DHT22;15243;50.726;7.080;2023-02-28T01:30:00;-1.40;99.90
27900;DHT22;15243;50.726;7.080;2023-02-28T01:32:27;-1.40;99.90
27900;DHT22;15243;50.726;7.080;2023-02-28T01:34:54;-1.30;99.90
27900;DHT22;15243;50.726;7.080;2023-02-28T01:37:21;-1.30;99.90
27900;DHT22;15243;50.726;7.080;2023-02-28T01:39:48;-1.30;99.90
27900;DHT22;15243;50.726;7.080;2023-02-28T01:42:15;-1.30;99.90
27900;DHT22;15243;50.726;7.080;2023-02-28T01:47:47;-1.20;99.90
27900;DHT22;15243;50.726;7.080;2023-02-28T01:50:18;-1.20;99.90
27900;DHT22;15243;50.726;7.080;2023-02-28T01:52:46;-1.30;99.90
27900;DHT22;15243;50.726;7.080;2023-02-28T01:55:17;-1.30;99.90
27900;DHT22;15243;50.726;7.080;2023-02-28T01:57:53;-1.40;99.90
27900;DHT22;15243;50.726;7.080;2023-02-28T02:00:25;-1.30;99.90
27900;DHT22;15243;50.726;7.080;2023-02-28T02:02:57;-1.20;99.90
27900;DHT22;15243;50.726;7.080;2023-02-28T02:05:28;-1.30;99.90
27900;DHT22;15243;50.726;7.080;2023-02-28T02:08:03;-1.30;99.90
27900;DHT22;15243;50.726;7.080;2023-02-28T02:10:42;-1.40;99.90
27900;DHT22;15243;50.726;7.080;2023-02-28T02:16:32;-1.30;99.90
27900;DHT22;15243;50.726;7.080;2023-02-28T02:20:03;-1.40;99.90
27900;DHT22;15243;50.726;7.080;2023-02-28T02:46:49;-1.80;99.90
27900;DHT22;15243;50.726;7.080;2023-02-28T02:49:28;-1.80;99.90
27900;DHT22;15243;50.726;7.080;2023-02-28T02:52:02;-1.80;99.90
27900;DHT22;15243;50.726;7.080;2023-02-28T02:54:33;-1.80;99.90
27900;DHT22;15243;50.726;7.080;2023-02-28T02:57:05;-1.80;99.90
27900;DHT22;15243;50.726;7.080;2023-02-28T02:59:37;-1.80;99.90
27900;DHT22;15243;50.726;7.080;2023-02-28T03:02:08;-1.70;99.90
27900;DHT22;15243;50.726;7.080;2023-02-28T03:04:42;-1.60;99.90
27900;DHT22;15243;50.726;7.080;2023-02-28T03:07:09;-1.50;99.90
27900;DHT22;15243;50.726;7.080;2023-02-28T03:09:36;-1.50;99.90
27900;DHT22;15243;50.726;7.080;2023-02-28T03:12:04;-1.50;99.90
27900;DHT22;15243;50.726;7.080;2023-02-28T03:17:44;-1.60;99.90
27900;DHT22;15243;50.726;7.080;2023-02-28T03:20:38;-1.60;99.90
27900;DHT22;15243;50.726;7.080;2023-02-28T03:25:52;-1.80;99.90
27900;DHT22;15243;50.726;7.080;2023-02-28T03:30:58;-1.80;99.90
27900;DHT22;15243;50.726;7.080;2023-02-28T03:33:42;-1.90;99.90
27900;DHT22;15243;50.726;7.080;2023-02-28T03:36:14;-1.90;99.90
27900;DHT22;15243;50.726;7.080;2023-02-28T03:38:54;-1.90;99.90
27900;DHT22;15243;50.726;7.080;2023-02-28T03:41:26;-2.00;99.90
27900;DHT22;15243;50.726;7.080;2023-02-28T03:43:59;-2.10;99.90
27900;DHT22;15243;50.726;7.080;2023-02-28T03:46:32;-2.10;99.90
27900;DHT22;15243;50.726;7.080;2023-02-28T03:49:06;-2.10;99.90
27900;DHT22;15243;50.726;7.080;2023-02-28T03:51:35;-2.10;99.90
27900;DHT22;15243;50.726;7.080;2023-02-28T03:54:12;-2.00;99.90
27900;DHT22;15243;50.726;7.080;2023-02-28T03:56:50;-1.80;99.90
27900;DHT22;15243;50.726;7.080;2023-02-28T03:59:34;-1.70;99.90
27900;DHT22;15243;50.726;7.080;2023-02-28T04:02:03;-1.80;99.90
27900;DHT22;15243;50.726;7.080;2023-02-28T04:04:30;-1.80;99.90
27900;DHT22;15243;50.726;7.080;2023-02-28T04:07:08;-1.90;99.90
27900;DHT22;15243;50.726;7.080;2023-02-28T04:09:35;-1.90;99.90
27900;DHT22;15243;50.726;7.080;2023-02-28T04:12:02;-1.90;99.90
27900;DHT22;15243;50.726;7.080;2023-02-28T04:14:29;-1.90;99.90
27900;DHT22;15243;50.726;7.080;2023-02-28T04:16:56;-2.00;99.90
27900;DHT22;15243;50.726;7.080;2023-02-28T04:19:23;-2.10;99.90
27900;DHT22;15243;50.726;7.080;2023-02-28T04:21:51;-2.10;99.90
27900;DHT22;15243;50.726;7.080;2023-02-28T04:24:21;-2.10;99.90
27900;DHT22;15243;50.726;7.080;2023-02-28T04:26:51;-2.00;99.90
27900;DHT22;15243;50.726;7.080;2023-02-28T04:29:29;-2.10;99.90
27900;DHT22;15243;50.726;7.080;2023-02-28T04:31:56;-2.10;99.90
27900;DHT22;15243;50.726;7.080;2023-02-28T04:34:28;-2.20;99.90
27900;DHT22;15243;50.726;7.080;2023-02-28T04:36:55;-2.20;99.90
27900;DHT22;15243;50.726;7.080;2023-02-28T04:39:38;-2.30;99.90
27900;DHT22;15243;50.726;7.080;2023-02-28T04:42:05;-2.30;99.90
27900;DHT22;15243;50.726;7.080;2023-02-28T04:44:31;-2.30;99.90
27900;DHT22;15243;50.726;7.080;2023-02-28T04:46:58;-2.30;99.90
27900;DHT22;15243;50.726;7.080;2023-02-28T04:49:25;-2.30;99.90
27900;DHT22;15243;50.726;7.080;2023-02-28T04:51:52;-2.40;99.90
27900;DHT22;15243;50.726;7.080;2023-02-28T04:54:20;-2.40;99.90
27900;DHT22;15243;50.726;7.080;2023-02-28T04:56:46;-2.50;99.90
27900;DHT22;15243;50.726;7.080;2023-02-28T04:59:16;-2.50;99.90
27900;DHT22;15243;50.726;7.080;2023-02-28T05:01:47;-2.60;99.90
27900;DHT22;15243;50.726;7.080;2023-02-28T05:04:14;-2.60;99.90
27900;DHT22;15243;50.726;7.080;2023-02-28T05:06:41;-2.60;99.90
27900;DHT22;15243;50.726;7.080;2023-02-28T05:09:07;-2.70;99.90
27900;DHT22;15243;50.726;7.080;2023-02-28T05:11:34;-2.60;99.90
27900;DHT22;15243;50.726;7.080;2023-02-28T05:14:06;-2.40;99.90
27900;DHT22;15243;50.726;7.080;2023-02-28T05:16:33;-2.50;99.90
27900;DHT22;15243;50.726;7.080;2023-02-28T05:19:00;-2.50;99.90
27900;DHT22;15243;50.726;7.080;2023-02-28T05:21:36;-2.60;99.90
27900;DHT22;15243;50.726;7.080;2023-02-28T05:24:06;-2.50;99.90
27900;DHT22;15243;50.726;7.080;2023-02-28T05:26:39;-2.50;99.90
27900;DHT22;15243;50.726;7.080;2023-02-28T05:29:07;-2.50;99.90
27900;DHT22;15243;50.726;7.080;2023-02-28T05:31:34;-2.70;99.90
27900;DHT22;15243;50.726;7.080;2023-02-28T05:34:02;-2.70;99.90
27900;DHT22;15243;50.726;7.080;2023-02-28T05:36:31;-2.70;99.90
27900;DHT22;15243;50.726;7.080;2023-02-28T05:38:58;-2.70;99.90
27900;DHT22;15243;50.726;7.080;2023-02-28T05:41:25;-2.80;99.90
27900;DHT22;15243;50.726;7.080;2023-02-28T05:43:53;-2.80;99.90
27900;DHT22;15243;50.726;7.080;2023-02-28T05:46:20;-2.80;99.90
27900;DHT22;15243;50.726;7.080;2023-02-28T05:48:48;-2.80;99.90
27900;DHT22;15243;50.726;7.080;2023-02-28T05:51:15;-2.80;99.90
27900;DHT22;15243;50.726;7.080;2023-02-28T05:53:43;-2.90;99.90
27900;DHT22;15243;50.726;7.080;2023-02-28T05:56:10;-2.80;99.90
27900;DHT22;15243;50.726;7.080;2023-02-28T05:58:37;-2.70;99.90
27900;DHT22;15243;50.726;7.080;2023-02-28T06:03:47;-2.80;99.90
27900;DHT22;15243;50.726;7.080;2023-02-28T06:06:14;-2.70;99.90
27900;DHT22;15243;50.726;7.080;2023-02-28T06:08:41;-2.70;99.90
27900;DHT22;15243;50.726;7.080;2023-02-28T06:11:10;-2.70;99.90
27900;DHT22;15243;50.726;7.080;2023-02-28T06:13:36;-2.70;99.90
27900;DHT22;15243;50.726;7.080;2023-02-28T06:16:04;-2.70;99.90
27900;DHT22;15243;50.726;7.080;2023-02-28T06:18:31;-2.70;99.90
27900;DHT22;15243;50.726;7.080;2023-02-28T06:20:57;-2.70;99.90
27900;DHT22;15243;50.726;7.080;2023-02-28T06:23:24;-2.70;99.90
27900;DHT22;15243;50.726;7.080;2023-02-28T06:25:51;-2.70;99.90
27900;DHT22;15243;50.726;7.080;2023-02-28T06:28:19;-2.80;99.90
27900;DHT22;15243;50.726;7.080;2023-02-28T06:30:46;-2.80;99.90
27900;DHT22;15243;50.726;7.080;2023-02-28T06:33:13;-2.70;99.90
27900;DHT22;15243;50.726;7.080;2023-02-28T06:35:44;-2.60;99.90
27900;DHT22;15243;50.726;7.080;2023-02-28T06:38:10;-2.70;99.90
27900;DHT22;15243;50.726;7.080;2023-02-28T06:40:37;-2.70;99.90
27900;DHT22;15243;50.726;7.080;2023-02-28T06:43:04;-2.60;99.90
27900;DHT22;15243;50.726;7.080;2023-02-28T06:45:31;-2.60;99.90
27900;DHT22;15243;50.726;7.080;2023-02-28T06:47:58;-2.40;99.90
27900;DHT22;15243;50.726;7.080;2023-02-28T06:50:26;-2.40;99.90
27900;DHT22;15243;50.726;7.080;2023-02-28T06:52:55;-2.40;99.90
27900;DHT22;15243;50.726;7.080;2023-02-28T06:55:22;-2.30;99.90
27900;DHT22;15243;50.726;7.080;2023-02-28T06:57:49;-2.20;99.90
27900;DHT22;15243;50.726;7.080;2023-02-28T07:00:17;-2.20;99.90
27900;DHT22;15243;50.726;7.080;2023-02-28T07:02:44;-2.10;99.90
27900;DHT22;15243;50.726;7.080;2023-02-28T07:05:11;-2.10;99.90
27900;DHT22;15243;50.726;7.080;2023-02-28T07:07:38;-1.90;99.90
27900;DHT22;15243;50.726;7.080;2023-02-28T07:10:07;-1.80;99.90
27900;DHT22;15243;50.726;7.080;2023-02-28T07:12:34;-1.50;99.90
27900;DHT22;15243;50.726;7.080;2023-02-28T07:15:03;-1.40;99.90
27900;DHT22;15243;50.726;7.080;2023-02-28T07:17:30;-1.30;99.90
27900;DHT22;15243;50.726;7.080;2023-02-28T07:19:57;-1.30;99.90
27900;DHT22;15243;50.726;7.080;2023-02-28T07:22:24;-1.10;99.90
27900;DHT22;15243;50.726;7.080;2023-02-28T07:24:51;-1.10;99.90
27900;DHT22;15243;50.726;7.080;2023-02-28T07:27:18;-1.00;99.90
27900;DHT22;15243;50.726;7.080;2023-02-28T07:29:50;-0.90;99.90
27900;DHT22;15243;50.726;7.080;2023-02-28T07:32:17;-0.80;99.90
27900;DHT22;15243;50.726;7.080;2023-02-28T07:34:45;-0.80;99.90
27900;DHT22;15243;50.726;7.080;2023-02-28T07:37:12;-0.70;98.40
27900;DHT22;15243;50.726;7.080;2023-02-28T07:39:39;-0.60;96.10
27900;DHT22;15243;50.726;7.080;2023-02-28T07:42:09;-0.40;95.10
27900;DHT22;15243;50.726;7.080;2023-02-28T07:44:39;-0.50;93.80
27900;DHT22;15243;50.726;7.080;2023-02-28T07:47:08;-0.40;92.60
27900;DHT22;15243;50.726;7.080;2023-02-28T07:49:36;-0.30;78.30
27900;DHT22;15243;50.726;7.080;2023-02-28T07:52:07;-0.30;85.20
27900;DHT22;15243;50.726;7.080;2023-02-28T07:54:35;-0.20;77.40
27900;DHT22;15243;50.726;7.080;2023-02-28T07:57:02;-0.20;71.50
27900;DHT22;15243;50.726;7.080;2023-02-28T07:59:32;-0.10;58.90
27900;DHT22;15243;50.726;7.080;2023-02-28T08:01:59;-0.10;64.70
27900;DHT22;15243;50.726;7.080;2023-02-28T08:04:26;0.10;61.00
27900;DHT22;15243;50.726;7.080;2023-02-28T08:06:52;0.20;55.50
27900;DHT22;15243;50.726;7.080;2023-02-28T08:09:20;0.20;43.50
27900;DHT22;15243;50.726;7.080;2023-02-28T08:11:46;0.10;39.40
27900;DHT22;15243;50.726;7.080;2023-02-28T08:14:13;0.10;41.80
27900;DHT22;15243;50.726;7.080;2023-02-28T08:16:40;0.30;39.40
27900;DHT22;15243;50.726;7.080;2023-02-28T08:19:07;0.30;19.70
27900;DHT22;15243;50.726;7.080;2023-02-28T08:21:34;0.50;21.10
27900;DHT22;15243;50.726;7.080;2023-02-28T08:24:01;0.60;11.10
27900;DHT22;15243;50.726;7.080;2023-02-28T08:26:27;0.70;8.90
27900;DHT22;15243;50.726;7.080;2023-02-28T08:28:54;0.90;3.00
27900;DHT22;15243;50.726;7.080;2023-02-28T08:31:23;1.10;8.30
27900;DHT22;15243;50.726;7.080;2023-02-28T08:33:50;1.30;1.00
27900;DHT22;15243;50.726;7.080;2023-02-28T08:36:19;1.30;1.00
27900;DHT22;15243;50.726;7.080;2023-02-28T08:38:46;1.50;1.00
27900;DHT22;15243;50.726;7.080;2023-02-28T08:41:13;1.40;1.00
27900;DHT22;15243;50.726;7.080;2023-02-28T08:43:40;1.40;1.70
27900;DHT22;15243;50.726;7.080;2023-02-28T08:46:08;1.40;1.00
27900;DHT22;15243;50.726;7.080;2023-02-28T08:48:37;1.30;1.00
27900;DHT22;15243;50.726;7.080;2023-02-28T08:51:07;1.60;1.00
27900;DHT22;15243;50.726;7.080;2023-02-28T08:53:36;1.70;1.00
27900;DHT22;15243;50.726;7.080;2023-02-28T08:56:06;1.80;1.00
27900;DHT22;15243;50.726;7.080;2023-02-28T08:58:34;1.80;1.00
27900;DHT22;15243;50.726;7.080;2023-02-28T09:01:07;2.10;1.00
27900;DHT22;15243;50.726;7.080;2023-02-28T09:03:34;2.20;1.00
27900;DHT22;15243;50.726;7.080;2023-02-28T09:06:02;2.30;1.00
27900;DHT22;15243;50.726;7.080;2023-02-28T09:08:30;2.30;1.00
27900;DHT22;15243;50.726;7.080;2023-02-28T09:10:58;2.50;1.00
27900;DHT22;15243;50.726;7.080;2023-02-28T09:13:28;2.60;1.00
27900;DHT22;15243;50.726;7.080;2023-02-28T09:15:58;2.70;1.00
27900;DHT22;15243;50.726;7.080;2023-02-28T09:18:26;2.70;1.00
27900;DHT22;15243;50.726;7.080;2023-02-28T09:20:53;2.80;1.00
27900;DHT22;15243;50.726;7.080;2023-02-28T09:23:20;2.80;1.00
27900;DHT22;15243;50.726;7.080;2023-02-28T09:25:49;2.80;1.00
27900;DHT22;15243;50.726;7.080;2023-02-28T09:28:16;2.90;1.00
27900;DHT22;15243;50.726;7.080;2023-02-28T09:30:49;2.80;1.00
27900;DHT22;15243;50.726;7.080;2023-02-28T09:33:17;2.90;1.00
27900;DHT22;15243;50.726;7.080;2023-02-28T09:35:45;3.10;1.00
27900;DHT22;15243;50.726;7.080;2023-02-28T09:38:12;3.10;1.00
27900;DHT22;15243;50.726;7.080;2023-02-28T09:40:56;2.80;1.00
27900;DHT22;15243;50.726;7.080;2023-02-28T09:43:29;2.70;1.00
27900;DHT22;15243;50.726;7.080;2023-02-28T09:46:12;3.00;1.00
27900;DHT22;15243;50.726;7.080;2023-02-28T09:48:44;3.30;1.00
27900;DHT22;15243;50.726;7.080;2023-02-28T09:53:51;3.50;1.00
27900;DHT22;15243;50.726;7.080;2023-02-28T09:56:36;3.70;1.00
27900;DHT22;15243;50.726;7.080;2023-02-28T09:59:18;3.80;1.00
27900;DHT22;15243;50.726;7.080;2023-02-28T10:09:52;4.20;1.00
27900;DHT22;15243;50.726;7.080;2023-02-28T10:12:20;4.40;1.00
27900;DHT22;15243;50.726;7.080;2023-02-28T10:14:51;4.50;1.00
27900;DHT22;15243;50.726;7.080;2023-02-28T10:17:26;4.60;99.90
27900;DHT22;15243;50.726;7.080;2023-02-28T10:20:17;4.70;99.90
27900;DHT22;15243;50.726;7.080;2023-02-28T10:23:00;4.50;99.90
27900;DHT22;15243;50.726;7.080;2023-02-28T10:25:36;4.50;99.90
27900;DHT22;15243;50.726;7.080;2023-02-28T10:28:11;4.60;99.90
27900;DHT22;15243;50.726;7.080;2023-02-28T10:30:46;4.60;99.90
27900;DHT22;15243;50.726;7.080;2023-02-28T10:33:24;4.70;99.90
27900;DHT22;15243;50.726;7.080;2023-02-28T10:35:52;4.80;99.90
27900;DHT22;15243;50.726;7.080;2023-02-28T10:38:23;4.80;99.90
27900;DHT22;15243;50.726;7.080;2023-02-28T10:40:51;4.80;99.90
27900;DHT22;15243;50.726;7.080;2023-02-28T10:43:29;4.50;99.90
27900;DHT22;15243;50.726;7.080;2023-02-28T10:45:57;4.60;99.90
27900;DHT22;15243;50.726;7.080;2023-02-28T10:50:53;5.00;99.90
27900;DHT22;15243;50.726;7.080;2023-02-28T11:01:24;5.60;99.90
27900;DHT22;15243;50.726;7.080;2023-02-28T11:03:52;5.60;99.90
27900;DHT22;15243;50.726;7.080;2023-02-28T11:06:30;5.80;99.90
27900;DHT22;15243;50.726;7.080;2023-02-28T11:11:29;5.70;1.00
27900;DHT22;15243;50.726;7.080;2023-02-28T11:14:04;5.80;1.00
27900;DHT22;15243;50.726;7.080;2023-02-28T11:16:34;6.20;1.00
27900;DHT22;15243;50.726;7.080;2023-02-28T11:19:02;6.60;1.00
27900;DHT22;15243;50.726;7.080;2023-02-28T11:21:36;6.60;1.00
27900;DHT22;15243;50.726;7.080;2023-02-28T11:24:21;6.80;1.00
27900;DHT22;15243;50.726;7.080;2023-02-28T11:26:49;6.90;1.00
27900;DHT22;15243;50.726;7.080;2023-02-28T11:29:22;6.50;1.00
27900;DHT22;15243;50.726;7.080;2023-02-28T11:34:37;6.60;1.00
27900;DHT22;15243;50.726;7.080;2023-02-28T11:37:09;6.80;99.90
27900;DHT22;15243;50.726;7.080;2023-02-28T11:39:39;6.90;1.00
27900;DHT22;15243;50.726;7.080;2023-02-28T11:47:54;7.30;1.00
27900;DHT22;15243;50.726;7.080;2023-02-28T11:56:48;7.40;99.90
27900;DHT22;15243;50.726;7.080;2023-02-28T12:02:55;7.50;99.90
27900;DHT22;15243;50.726;7.080;2023-02-28T12:05:48;7.30;99.90
27900;DHT22;15243;50.726;7.080;2023-02-28T12:11:03;7.50;99.90
27900;DHT22;15243;50.726;7.080;2023-02-28T12:19:17;6.90;99.90
27900;DHT22;15243;50.726;7.080;2023-02-28T12:21:56;6.70;99.90
27900;DHT22;15243;50.726;7.080;2023-02-28T12:27:19;7.00;99.90
27900;DHT22;15243;50.726;7.080;2023-02-28T12:30:04;7.10;99.90
27900;DHT22;15243;50.726;7.080;2023-02-28T12:32:37;6.60;99.90
27900;DHT22;15243;50.726;7.080;2023-02-28T12:35:13;6.50;99.90
27900;DHT22;15243;50.726;7.080;2023-02-28T12:37:54;6.60;99.90
27900;DHT22;15243;50.726;7.080;2023-02-28T12:40:33;6.90;99.90
27900;DHT22;15243;50.726;7.080;2023-02-28T12:43:04;7.20;99.90
27900;DHT22;15243;50.726;7.080;2023-02-28T12:45:55;7.30;99.90
27900;DHT22;15243;50.726;7.080;2023-02-28T12:48:52;7.50;99.90
27900;DHT22;15243;50.726;7.080;2023-02-28T12:51:26;7.90;99.90
27900;DHT22;15243;50.726;7.080;2023-02-28T12:56:49;7.90;99.90
27900;DHT22;15243;50.726;7.080;2023-02-28T12:59:45;7.90;99.90
27900;DHT22;15243;50.726;7.080;2023-02-28T13:10:48;7.50;99.90
27900;DHT22;15243;50.726;7.080;2023-02-28T13:13:28;8.10;99.90
27900;DHT22;15243;50.726;7.080;2023-02-28T13:16:05;8.30;99.90
27900;DHT22;15243;50.726;7.080;2023-02-28T13:18:46;8.90;99.90
27900;DHT22;15243;50.726;7.080;2023-02-28T13:21:42;9.10;99.90
27900;DHT22;15243;50.726;7.080;2023-02-28T13:29:36;9.40;99.90
27900;DHT22;15243;50.726;7.080;2023-02-28T13:39:55;10.10;1.00
27900;DHT22;15243;50.726;7.080;2023-02-28T13:47:44;11.00;1.00
27900;DHT22;15243;50.726;7.080;2023-02-28T13:52:54;10.70;1.00
27900;DHT22;15243;50.726;7.080;2023-02-28T14:03:49;10.90;1.00
27900;DHT22;15243;50.726;7.080;2023-02-28T14:06:32;11.50;1.00
27900;DHT22;15243;50.726;7.080;2023-02-28T14:11:43;11.30;1.00
27900;DHT22;15243;50.726;7.080;2023-02-28T14:17:07;12.40;1.00
27900;DHT22;15243;50.726;7.080;2023-02-28T14:19:50;12.30;1.00
27900;DHT22;15243;50.726;7.080;2023-02-28T14:22:53;12.70;1.00
27900;DHT22;15243;50.726;7.080;2023-02-28T14:25:37;12.30;1.00
27900;DHT22;15243;50.726;7.080;2023-02-28T14:36:18;12.10;1.00
27900;DHT22;15243;50.726;7.080;2023-02-28T14:39:05;13.00;1.00
27900;DHT22;15243;50.726;7.080;2023-02-28T14:41:38;13.20;1.00
27900;DHT22;15243;50.726;7.080;2023-02-28T14:44:26;12.70;1.00
27900;DHT22;15243;50.726;7.080;2023-02-28T14:46:59;13.40;1.00
27900;DHT22;15243;50.726;7.080;2023-02-28T14:49:42;13.40;1.00
27900;DHT22;15243;50.726;7.080;2023-02-28T14:52:22;13.30;1.00
27900;DHT22;15243;50.726;7.080;2023-02-28T14:54:59;13.30;1.00
27900;DHT22;15243;50.726;7.080;2023-02-28T14:57:32;14.40;1.00
27900;DHT22;15243;50.726;7.080;2023-02-28T15:00:06;14.90;1.00
27900;DHT22;15243;50.726;7.080;2023-02-28T15:02:37;15.10;1.00
27900;DHT22;15243;50.726;7.080;2023-02-28T15:07:44;13.00;1.00
27900;DHT22;15243;50.726;7.080;2023-02-28T15:12:58;13.70;1.00
27900;DHT22;15243;50.726;7.080;2023-02-28T15:18:26;14.00;1.00
27900;DHT22;15243;50.726;7.080;2023-02-28T15:24:07;15.10;1.00
27900;DHT22;15243;50.726;7.080;2023-02-28T15:26:39;13.80;1.00
27900;DHT22;15243;50.726;7.080;2023-02-28T15:29:19;14.30;1.00
27900;DHT22;15243;50.726;7.080;2023-02-28T15:34:34;15.40;1.00
27900;DHT22;15243;50.726;7.080;2023-02-28T15:40:13;14.00;1.00
27900;DHT22;15243;50.726;7.080;2023-02-28T15:42:41;14.20;1.00
27900;DHT22;15243;50.726;7.080;2023-02-28T15:45:47;14.10;1.00
27900;DHT22;15243;50.726;7.080;2023-02-28T15:48:29;13.70;1.00
27900;DHT22;15243;50.726;7.080;2023-02-28T15:51:12;12.70;1.00
27900;DHT22;15243;50.726;7.080;2023-02-28T15:54:06;12.90;1.00
27900;DHT22;15243;50.726;7.080;2023-02-28T15:56:55;13.20;1.00
27900;DHT22;15243;50.726;7.080;2023-02-28T15:59:26;12.50;1.00
27900;DHT22;15243;50.726;7.080;2023-02-28T16:07:56;9.90;1.00
27900;DHT22;15243;50.726;7.080;2023-02-28T16:10:24;9.20;1.00
27900;DHT22;15243;50.726;7.080;2023-02-28T16:12:55;8.90;1.00
27900;DHT22;15243;50.726;7.080;2023-02-28T16:15:29;8.30;1.00
27900;DHT22;15243;50.726;7.080;2023-02-28T16:17:58;8.00;1.00
27900;DHT22;15243;50.726;7.080;2023-02-28T16:20:28;7.70;1.00
27900;DHT22;15243;50.726;7.080;2023-02-28T16:22:55;7.10;1.00
27900;DHT22;15243;50.726;7.080;2023-02-28T16:25:26;7.00;1.00
27900;DHT22;15243;50.726;7.080;2023-02-28T16:28:03;7.20;1.00
27900;DHT22;15243;50.726;7.080;2023-02-28T16:30:30;7.10;1.00
27900;DHT22;15243;50.726;7.080;2023-02-28T16:33:00;7.10;1.00
27900;DHT22;15243;50.726;7.080;2023-02-28T16:35:27;6.80;1.00
27900;DHT22;15243;50.726;7.080;2023-02-28T16:37:54;7.00;1.00
27900;DHT22;15243;50.726;7.080;2023-02-28T16:40:23;6.50;1.00
27900;DHT22;15243;50.726;7.080;2023-02-28T16:42:54;6.50;1.00
27900;DHT22;15243;50.726;7.080;2023-02-28T16:45:25;6.40;1.00
27900;DHT22;15243;50.726;7.080;2023-02-28T16:47:52;6.40;1.00
27900;DHT22;15243;50.726;7.080;2023-02-28T16:50:22;6.20;1.00
27900;DHT22;15243;50.726;7.080;2023-02-28T16:52:49;6.10;1.00
27900;DHT22;15243;50.726;7.080;2023-02-28T16:55:18;6.00;1.00
27900;DHT22;15243;50.726;7.080;2023-02-28T16:57:53;5.90;1.00
27900;DHT22;15243;50.726;7.080;2023-02-28T17:00:20;5.90;1.00
27900;DHT22;15243;50.726;7.080;2023-02-28T17:02:47;5.70;1.00
27900;DHT22;15243;50.726;7.080;2023-02-28T17:05:15;5.70;1.00
27900;DHT22;15243;50.726;7.080;2023-02-28T17:07:42;5.40;1.00
27900;DHT22;15243;50.726;7.080;2023-02-28T17:10:25;5.30;1.00
27900;DHT22;15243;50.726;7.080;2023-02-28T17:12:52;5.40;1.00
27900;DHT22;15243;50.726;7.080;2023-02-28T17:15:28;5.20;1.00
27900;DHT22;15243;50.726;7.080;2023-02-28T17:17:58;5.10;1.00
27900;DHT22;15243;50.726;7.080;2023-02-28T17:20:24;5.10;1.00
27900;DHT22;15243;50.726;7.080;2023-02-28T17:22:53;5.00;1.00
27900;DHT22;15243;50.726;7.080;2023-02-28T17:25:21;5.00;1.00
27900;DHT22;15243;50.726;7.080;2023-02-28T17:27:49;4.80;99.90
27900;DHT22;15243;50.726;7.080;2023-02-28T17:30:23;4.70;99.90
27900;DHT22;15243;50.726;7.080;2023-02-28T17:32:50;4.60;99.90
27900;DHT22;15243;50.726;7.080;2023-02-28T17:35:17;4.60;1.00
27900;DHT22;15243;50.726;7.080;2023-02-28T17:37:44;4.60;99.90
27900;DHT22;15243;50.726;7.080;2023-02-28T17:40:29;4.50;99.90
27900;DHT22;15243;50.726;7.080;2023-02-28T17:42:56;4.40;1.00
27900;DHT22;15243;50.726;7.080;2023-02-28T17:45:24;4.30;1.00
27900;DHT22;15243;50.726;7.080;2023-02-28T17:47:51;4.30;1.00
27900;DHT22;15243;50.726;7.080;2023-02-28T17:50:21;4.10;1.00
27900;DHT22;15243;50.726;7.080;2023-02-28T17:52:48;4.10;1.00
27900;DHT22;15243;50.726;7.080;2023-02-28T17:55:17;4.00;1.00
27900;DHT22;15243;50.726;7.080;2023-02-28T17:57:45;3.80;1.00
27900;DHT22;15243;50.726;7.080;2023-02-28T18:00:15;3.80;1.00
27900;DHT22;15243;50.726;7.080;2023-02-28T18:02:44;3.70;1.00
27900;DHT22;15243;50.726;7.080;2023-02-28T18:05:11;3.50;1.00
27900;DHT22;15243;50.726;7.080;2023-02-28T18:07:39;3.30;1.00
27900;DHT22;15243;50.726;7.080;2023-02-28T18:10:11;3.30;1.00
27900;DHT22;15243;50.726;7.080;2023-02-28T18:12:39;3.30;1.00
27900;DHT22;15243;50.726;7.080;2023-02-28T18:15:07;3.10;1.00
27900;DHT22;15243;50.726;7.080;2023-02-28T18:17:34;3.10;1.00
27900;DHT22;15243;50.726;7.080;2023-02-28T18:20:01;3.10;1.00
27900;DHT22;15243;50.726;7.080;2023-02-28T18:22:28;3.00;1.00
27900;DHT22;15243;50.726;7.080;2023-02-28T18:24:55;3.00;1.00
27900;DHT22;15243;50.726;7.080;2023-02-28T18:27:21;2.90;1.00
27900;DHT22;15243;50.726;7.080;2023-02-28T18:29:48;2.80;1.00
27900;DHT22;15243;50.726;7.080;2023-02-28T18:32:22;2.70;1.00
27900;DHT22;15243;50.726;7.080;2023-02-28T18:34:49;2.60;1.00
27900;DHT22;15243;50.726;7.080;2023-02-28T18:37:16;2.50;1.00
27900;DHT22;15243;50.726;7.080;2023-02-28T18:39:44;2.40;11.10
27900;DHT22;15243;50.726;7.080;2023-02-28T18:42:12;2.40;1.00
27900;DHT22;15243;50.726;7.080;2023-02-28T18:44:38;2.40;1.00
27900;DHT22;15243;50.726;7.080;2023-02-28T18:47:06;2.30;26.70
27900;DHT22;15243;50.726;7.080;2023-02-28T18:49:33;2.20;2.70
27900;DHT22;15243;50.726;7.080;2023-02-28T18:52:01;2.00;21.30
27900;DHT22;15243;50.726;7.080;2023-02-28T18:54:28;1.90;36.60
27900;DHT22;15243;50.726;7.080;2023-02-28T18:56:55;1.80;20.90
27900;DHT22;15243;50.726;7.080;2023-02-28T18:59:22;1.80;50.20